Hastings Natural History Reservation, California Weather observations

Data are for 10 minute period ending at time listed.
 Day   Time   Solar   Ave.   Ave.  Ave.  Vector  Max.   Baro.   Total    
  of    of     Rad.   Air    Rel.  Wind   Wind   Wind  Press.  Precip.   
Year   Day            Temp.  Hum.  Speed  Dir.   Gust                    
2017   (PST)  Kw/m2    F      %     mph   deg.    mph    mb.     in.     
-------------------------------------------------------------------------
  83   17:00   0.01   53.0    80    0.4   264     1.8   957.2    0.00 
  83   17:10   0.02   53.0    80    1.1   265     3.1   957.1    0.00 
  83   17:20   0.02   52.6    80    2.5   247     6.0   957.2    0.00 
  83   17:30   0.02   52.2    82    1.7   255     5.3   957.2    0.00 
  83   17:40   0.01   52.0    85    1.0    37     4.2   957.0    0.01 
  83   17:50   0.01   51.8    85    0.8   324     3.6   957.0    0.00 
  83   18:00   0.01   51.6    85    1.1   262     3.7   956.9    0.00 
  83   18:10   0.00   51.4    86    2.1   253     3.9   956.9    0.00 
  83   18:20   0.00   51.3    86    0.4   328     2.1   956.9    0.00 
  83   18:30   0.00   51.2    86    1.2   253     2.3   956.9    0.00 
  83   18:40   0.00   51.1    86    1.8   245     3.0   956.9    0.00 
  83   18:50   0.00   51.2    86    0.1   265     1.2   956.9    0.00 
  83   19:00   0.00   51.1    87    0.0   316     0.9   956.8    0.00 
  83   19:10   0.00   51.0    87    0.1   278     1.3   956.9    0.00 
  83   19:20   0.00   51.1    88    0.5   239     1.6   957.0    0.00 
  83   19:30   0.00   50.9    88    1.0    60     2.1   956.9    0.00 
  83   19:40   0.00   50.7    88    0.3   336     2.3   956.8    0.00 
  83   19:50   0.00   50.6    88    0.1     9     1.3   956.9    0.00 
  83   20:00   0.00   50.5    88    0.8    67     2.3   956.9    0.00 
  83   20:10   0.00   50.4    88    0.4   120     1.2   957.0    0.00 
  83   20:20   0.00   50.4    89    1.5    67     2.9   956.9    0.00 
  83   20:30   0.00   50.4    89    0.5    87     1.7   957.1    0.00 
  83   20:40   0.00   50.4    89    0.1    99     0.9   957.2    0.00 
  83   20:50   0.00   50.2    89    0.8    68     2.0   957.2    0.00 
  83   21:00   0.00   50.1    90    1.7    76     2.8   957.1    0.00 
  83   21:10   0.00   50.1    91    1.6    87     3.1   957.0    0.00 
  83   21:20   0.00   50.1    91    0.3    85     1.8   957.0    0.01 
  83   21:30   0.00   50.1    91    1.5    79     2.4   956.9    0.00 
  83   21:40   0.00   50.1    91    0.2   149     1.2   957.0    0.00 
  83   21:50   0.00   50.1    91    0.1   263     1.4   957.1    0.00 
  83   22:00   0.00   50.0    92    0.0     0     0.0   957.1    0.01 
  83   22:10   0.00   50.1    92    0.9    61     2.3   957.0    0.00 
  83   22:20   0.00   50.0    93    1.0    53     2.9   956.9    0.01 
  83   22:30   0.00   50.0    93    0.6    66     2.9   956.9    0.00 
  83   22:40   0.00   50.0    93    0.9    70     2.6   956.9    0.00 
  83   22:50   0.00   49.9    93    0.6   237     1.8   956.9    0.00 
  83   23:00   0.00   49.7    93    0.4    66     1.5   956.8    0.01 
  83   23:10   0.00   49.6    93    1.0    59     2.5   956.7    0.00 
  83   23:20   0.00   49.5    94    0.8    42     2.3   956.6    0.00 
  83   23:30   0.00   49.6    93    0.4    44     1.8   956.6    0.00 
  83   23:40   0.00   49.5    93    0.5    92     2.0   956.7    0.01 
  83   23:50   0.00   49.3    93    0.8    77     2.0   956.6    0.00 
  84    0:00   0.00   49.1    93    1.0    61     2.4   956.6    0.00 
  84    0:10   0.00   49.1    93    0.2    95     1.3   956.5    0.00 
  84    0:20   0.00   49.0    93    0.4   279     1.6   956.4    0.00 
  84    0:30   0.00   49.0    93    0.3    62     1.4   956.4    0.02 
  84    0:40   0.00   48.9    94    0.4    44     1.5   956.4    0.00 
  84    0:50   0.00   48.7    94    1.1    71     2.3   956.3    0.01 
  84    1:00   0.00   48.5    94    0.3    87     1.2   956.3    0.00 
  84    1:10   0.00   48.5    94    0.0   203     0.2   956.3    0.00 
  84    1:20   0.00   48.6    94    0.1    91     1.0   956.3    0.00 
  84    1:30   0.00   48.4    94    0.8   249     1.9   956.3    0.00 
  84    1:40   0.00   48.4    94    0.1   243     0.9   956.3    0.00 
  84    1:50   0.00   48.3    94    0.5   241     1.4   956.2    0.00 
  84    2:00   0.00   48.3    94    0.0    26     0.6   956.1    0.00 
  84    2:10   0.00   48.3    94    0.0   129     0.1   956.0    0.00 
  84    2:20   0.00   48.2    95    0.0     0     0.0   955.9    0.00 
  84    2:30   0.00   48.1    94    0.4    77     1.1   955.7    0.00 
  84    2:40   0.00   47.9    95    0.0     0     0.0   955.7    0.00 
  84    2:50   0.00   47.9    95    0.0     0     0.0   955.6    0.00 
  84    3:00   0.00   48.0    95    0.0     0     0.0   955.6    0.00 
  84    3:10   0.00   48.1    95    0.1   253     1.1   955.6    0.00 
  84    3:20   0.00   48.0    95    0.2    64     1.3   955.6    0.00 
  84    3:30   0.00   48.1    95    0.4   262     1.7   955.6    0.00 
  84    3:40   0.00   48.0    95    0.7   253     2.4   955.6    0.00 
  84    3:50   0.00   48.1    95    0.0     0     0.0   955.6    0.01 
  84    4:00   0.00   48.0    95    0.2    29     1.4   955.5    0.00 
  84    4:10   0.00   48.1    95    0.2   235     1.1   955.6    0.01 
  84    4:20   0.00   48.1    95    0.0     0     0.0   955.5    0.00 
  84    4:30   0.00   48.1    95    0.1    36     1.0   955.4    0.03 
  84    4:40   0.00   48.0    95    0.2   274     1.8   955.4    0.02 
  84    4:50   0.00   48.0    95    0.2   289     1.3   955.5    0.02 
  84    5:00   0.00   47.9    95    0.8   243     2.4   955.6    0.01 
  84    5:10   0.00   48.1    96    1.2   253     4.8   955.6    0.01 
  84    5:20   0.00   48.0    95    1.2   246     3.3   955.6    0.00 
  84    5:30   0.00   48.1    96    0.7   251     1.8   955.7    0.02 
  84    5:40   0.00   48.1    95    0.7   247     3.2   955.7    0.00 
  84    5:50   0.00   48.1    96    2.0   250     4.9   955.7    0.01 
  84    6:00   0.00   48.1    96    1.4   251     3.9   955.7    0.00 
  84    6:10   0.00   48.1    96    0.8   252     2.5   955.8    0.01 
  84    6:20   0.01   48.1    96    0.8   252     2.7   955.9    0.00 
  84    6:30   0.02   48.3    96    1.0   257     3.4   955.9    0.00 
  84    6:40   0.01   48.4    96    0.9   273     2.6   956.0    0.00 
  84    6:50   0.01   48.4    96    0.7   262     3.0   956.0    0.00 
  84    7:00   0.04   48.2    96    2.6   250     5.3   956.1    0.00 
  84    7:10   0.07   48.2    96    2.9   240     5.6   956.0    0.00 
  84    7:20   0.06   48.5    96    1.9   245     5.5   956.1    0.00 
  84    7:30   0.09   48.5    96    2.7   250     5.2   956.2    0.00 
  84    7:40   0.07   49.0    95    1.9   250     5.1   956.2    0.00 
  84    7:50   0.08   49.0    95    1.8   252     4.3   956.3    0.00 
  84    8:00   0.09   49.2    94    0.7   289     3.0   956.3    0.00 
  84    8:10   0.08   49.3    93    1.8   242     6.1   956.3    0.00 
  84    8:20   0.07   49.4    92    2.6   243     4.5   956.3    0.00 
  84    8:30   0.07   49.5    91    1.9   252     5.3   956.3    0.00 
  84    8:40   0.13   49.7    90    2.2   250     5.9   956.4    0.00 
  84    8:50   0.23   50.3    89    1.7   255     6.0   956.5    0.00 
  84    9:00   0.30   51.1    87    1.7   238     4.2   956.6    0.00 
  84    9:10   0.20   51.4    84    3.0   230     6.0   956.7    0.00 
  84    9:20   0.18   51.2    84    1.9   253     6.5   956.8    0.00 
  84    9:30   0.18   51.3    84    1.8   256     5.3   956.9    0.00 
  84    9:40   0.19   51.2    84    2.4   255     6.2   956.9    0.00 
  84    9:50   0.23   51.2    84    1.8   261     5.0   957.1    0.00 
  84   10:00   0.22   51.1    83    3.9   250     8.0   957.0    0.00 
  84   10:10   0.22   51.4    84    2.6   259     6.1   957.0    0.00 
  84   10:20   0.15   51.2    82    3.9   245     7.2   957.1    0.00 
  84   10:30   0.16   51.0    81    2.5   245     7.7   957.2    0.00 
  84   10:40   0.30   52.3    80    2.0   285     5.3   957.2    0.00 
  84   10:50   0.20   52.3    75    1.6   243     4.2   957.2    0.00 
  84   11:00   0.28   53.0    77    1.8   271     4.3   957.2    0.00 
  84   11:10   0.28   53.2    77    2.8   255     6.9   957.1    0.00 
  84   11:20   0.33   52.8    78    4.3   236     9.1   957.0    0.00 
  84   11:30   0.32   53.2    75    4.2   243     9.1   957.0    0.00 
  84   11:40   0.19   53.0    76    3.2   248     7.5   957.1    0.00 
  84   11:50   0.23   53.1    77    3.3   255     8.4   957.0    0.00 
  84   12:00   0.36   53.5    77    3.2   276     8.5   956.9    0.00 
  84   12:10   0.49   54.1    74    3.5   244    10.5   956.9    0.00 
  84   12:20   0.59   54.2    73    4.1   242    11.4   956.9    0.00 
  84   12:30   0.48   54.4    73    4.2   253    10.7   956.8    0.00 
  84   12:40   1.04   55.8    72    4.3   262    11.4   956.7    0.00 
  84   12:50   0.61   55.5    69    5.3   295    10.8   956.7    0.00 
  84   13:00   0.86   55.3    68    4.8   250    11.5   956.5    0.00 
  84   13:10   0.72   55.5    67    4.8   252     9.6   956.5    0.00 
  84   13:20   0.94   55.8    66    6.3   244    13.6   956.3    0.00 
  84   13:30   0.82   55.6    66    5.4   247    11.8   956.2    0.00 
  84   13:40   0.90   56.4    64    5.9   246    11.2   956.1    0.00 
  84   13:50   0.73   57.0    64    4.8   252    11.7   955.9    0.00 
  84   14:00   0.73   56.5    65    4.1   250     9.1   955.9    0.00 
  84   14:10   0.62   57.1    64    4.1   256     8.2   955.9    0.00 
  84   14:20   0.63   56.6    64    5.4   245    11.2   955.8    0.00 
  84   14:30   0.18   55.7    65    3.9   254     9.4   956.0    0.00 
  84   14:40   0.63   56.2    64    4.2   250    12.8   956.0    0.00 
  84   14:50   0.51   57.6    62    3.8   250    11.5   955.9    0.00 
  84   15:00   0.43   56.4    64    3.2   264     8.1   955.9    0.00 
  84   15:10   0.35   57.1    65    2.9   353    10.1   956.0    0.00 
  84   15:20   0.45   56.1    66    2.4   296    10.2   955.9    0.00 
  84   15:30   0.26   56.2    65    3.7   267     9.3   955.8    0.00 
  84   15:40   0.46   56.7    65    1.6   311     5.5   955.7    0.00 
  84   15:50   0.53   57.3    63    3.1   354     8.1   955.7    0.00 
  84   16:00   0.44   56.9    63    3.9   266     9.7   955.6    0.00 
  84   16:10   0.50   56.6    64    3.9   254     9.6   955.5    0.00 
  84   16:20   0.43   57.1    63    3.8   270     9.2   955.5    0.00 
  84   16:30   0.39   56.9    64    3.8   258     9.1   955.5    0.00 
  84   16:40   0.36   55.8    65    5.0   251     9.9   955.6    0.00 
  84   16:50   0.34   55.3    66    4.0   250    10.7   955.6    0.00 

Return to Hastings Natural History Reservation graphs page.


Western Regional Climate Center,wrcc@dri.edu